createdAt,value
2019-05-19T00:01:48.517Z,57.49
2019-05-19T00:04:20.940Z,57.33
2019-05-19T00:06:52.327Z,57.50
2019-05-19T00:09:23.740Z,57.52
2019-05-19T00:11:55.356Z,57.63
2019-05-19T00:14:26.880Z,57.64
2019-05-19T00:16:58.420Z,57.21
2019-05-19T00:19:30.067Z,57.34
2019-05-19T00:22:03.671Z,57.23
2019-05-19T00:24:35.664Z,57.32
2019-05-19T00:27:07.458Z,57.71
2019-05-19T00:29:38.974Z,57.66
2019-05-19T00:32:10.702Z,57.56
2019-05-19T00:34:42.470Z,57.55
2019-05-19T00:37:14.094Z,57.85
2019-05-19T00:39:45.535Z,58.09
2019-05-19T00:42:16.950Z,58.04
2019-05-19T00:44:48.330Z,57.76
2019-05-19T00:47:19.896Z,57.96
2019-05-19T00:49:51.510Z,58.14
2019-05-19T00:52:23.984Z,58.25
2019-05-19T00:54:55.518Z,58.13
2019-05-19T00:57:28.146Z,58.16
2019-05-19T01:00:00.543Z,58.47
2019-05-19T01:02:33.760Z,57.72
2019-05-19T01:05:07.483Z,57.65
2019-05-19T01:07:40.262Z,57.63
2019-05-19T01:10:12.650Z,57.43
2019-05-19T01:12:44.411Z,57.61
2019-05-19T01:15:17.708Z,57.61
2019-05-19T01:17:49.158Z,57.52
2019-05-19T01:20:20.817Z,57.45
2019-05-19T01:22:52.275Z,57.35
2019-05-19T01:25:23.793Z,57.52
2019-05-19T01:27:56.501Z,57.43
2019-05-19T01:30:28.004Z,56.85
2019-05-19T01:32:59.608Z,57.17
2019-05-19T01:35:31.265Z,57.19
2019-05-19T01:38:02.759Z,56.81
2019-05-19T01:40:34.276Z,56.65
2019-05-19T01:43:06.063Z,56.37
2019-05-19T01:45:37.793Z,56.44
2019-05-19T01:48:09.435Z,56.86
2019-05-19T01:50:41.103Z,57.17
2019-05-19T01:53:12.582Z,56.79
2019-05-19T01:55:43.935Z,56.94
2019-05-19T01:58:15.551Z,56.95
2019-05-19T02:00:46.891Z,56.76
2019-05-19T02:03:19.937Z,56.77
2019-05-19T02:05:51.744Z,56.65
2019-05-19T02:08:23.386Z,56.53
2019-05-19T02:10:55.108Z,56.12
2019-05-19T02:13:26.559Z,56.16
2019-05-19T02:15:58.266Z,56.39
2019-05-19T02:18:30.918Z,56.02
2019-05-19T02:21:02.551Z,56.06
2019-05-19T02:23:34.273Z,56.16
2019-05-19T02:26:05.759Z,56.37
2019-05-19T02:28:37.299Z,56.46
2019-05-19T02:31:08.948Z,56.67
2019-05-19T02:33:40.507Z,56.96
2019-05-19T02:36:11.978Z,57.25
2019-05-19T02:38:46.711Z,57.07
2019-05-19T02:41:22.135Z,56.94
2019-05-19T02:43:55.333Z,56.81
2019-05-19T02:46:27.707Z,56.64
2019-05-19T02:49:00.223Z,56.54
2019-05-19T02:51:34.604Z,56.77
2019-05-19T02:54:07.094Z,56.69
2019-05-19T02:56:39.322Z,56.72
2019-05-19T02:59:11.641Z,56.80
2019-05-19T03:02:04.621Z,56.88
2019-05-19T03:04:36.138Z,56.54
2019-05-19T03:07:07.893Z,56.48
2019-05-19T03:09:40.620Z,56.26
2019-05-19T03:12:12.602Z,56.24
2019-05-19T03:14:44.062Z,55.98
2019-05-19T03:17:17.199Z,55.88
2019-05-19T03:19:48.733Z,55.51
2019-05-19T03:22:20.356Z,55.31
2019-05-19T03:24:52.359Z,55.48
2019-05-19T03:27:23.907Z,55.37
2019-05-19T03:29:57.164Z,55.52
2019-05-19T03:32:30.120Z,55.64
2019-05-19T03:35:01.702Z,55.37
2019-05-19T03:37:33.394Z,55.63
2019-05-19T03:40:07.497Z,55.78
2019-05-19T03:42:38.886Z,55.64
2019-05-19T03:45:10.415Z,55.81
2019-05-19T03:47:42.085Z,55.77
2019-05-19T03:50:13.831Z,55.09
2019-05-19T03:52:46.835Z,54.87
2019-05-19T03:55:19.123Z,55.05
2019-05-19T03:57:51.577Z,55.06
2019-05-19T04:00:23.482Z,55.01
2019-05-19T04:02:55.094Z,55.31
2019-05-19T04:05:26.648Z,54.86
2019-05-19T04:07:58.215Z,55.00
2019-05-19T04:10:29.688Z,54.84
2019-05-19T04:13:01.264Z,54.93
2019-05-19T04:15:32.735Z,55.04
2019-05-19T04:18:05.755Z,55.11
2019-05-19T04:20:37.527Z,54.86
2019-05-19T04:23:09.350Z,55.12
2019-05-19T04:25:40.921Z,55.38
2019-05-19T04:28:14.165Z,55.50
2019-05-19T04:30:45.694Z,55.49
2019-05-19T04:33:17.248Z,55.41
2019-05-19T04:35:49.733Z,54.93
2019-05-19T04:38:21.178Z,54.18
2019-05-19T04:40:52.731Z,54.48
2019-05-19T04:43:24.361Z,53.83
2019-05-19T04:45:55.855Z,53.98
2019-05-19T04:48:27.488Z,53.17
2019-05-19T04:51:00.996Z,53.85
2019-05-19T04:53:33.650Z,52.95
2019-05-19T04:56:05.286Z,52.73
2019-05-19T04:58:36.888Z,52.33
2019-05-19T05:01:08.583Z,51.82
2019-05-19T05:03:40.181Z,51.67
2019-05-19T05:06:11.836Z,51.73
2019-05-19T05:08:46.057Z,51.51
2019-05-19T05:11:17.588Z,51.84
2019-05-19T05:13:49.134Z,51.44
2019-05-19T05:16:20.629Z,51.03
2019-05-19T05:18:52.179Z,50.88
2019-05-19T05:21:23.588Z,50.21
2019-05-19T05:23:54.973Z,50.27
2019-05-19T05:26:26.485Z,50.18
2019-05-19T05:28:57.823Z,49.83
2019-05-19T05:31:29.572Z,49.77
2019-05-19T05:34:01.100Z,49.17
2019-05-19T05:36:32.654Z,49.51
2019-05-19T05:39:07.165Z,49.35
2019-05-19T05:41:38.738Z,48.46
2019-05-19T05:44:10.406Z,48.84
2019-05-19T05:46:41.898Z,48.81
2019-05-19T05:49:13.565Z,48.32
2019-05-19T05:51:45.968Z,48.18
2019-05-19T05:54:17.398Z,48.06
2019-05-19T05:56:49.156Z,47.36
2019-05-19T05:59:20.611Z,48.04
2019-05-19T06:01:52.121Z,48.23
2019-05-19T06:04:23.514Z,47.21
2019-05-19T06:06:55.178Z,46.76
2019-05-19T06:09:26.786Z,46.37
2019-05-19T06:11:58.445Z,45.90
2019-05-19T06:14:29.873Z,45.63
2019-05-19T06:17:01.234Z,45.87
2019-05-19T06:19:32.662Z,44.95
2019-05-19T06:22:05.361Z,44.89
2019-05-19T06:24:37.188Z,44.42
2019-05-19T06:27:08.754Z,44.16
2019-05-19T06:29:40.253Z,43.59
2019-05-19T06:32:16.401Z,42.84
2019-05-19T06:34:48.013Z,42.27
2019-05-19T06:37:19.493Z,41.58
2019-05-19T06:39:51.041Z,41.95
2019-05-19T06:42:22.614Z,41.07
2019-05-19T06:44:54.037Z,38.80
2019-05-19T06:47:25.480Z,38.96
2019-05-19T06:49:56.877Z,38.63
2019-05-19T06:52:28.417Z,38.65
2019-05-19T06:54:59.869Z,37.94
2019-05-19T06:57:31.792Z,37.59
2019-05-19T07:00:04.652Z,38.10
2019-05-19T07:02:37.121Z,38.34
2019-05-19T07:05:08.588Z,38.19
2019-05-19T07:07:40.054Z,37.93
2019-05-19T07:10:11.809Z,37.46
2019-05-19T07:12:43.211Z,38.24
2019-05-19T07:15:15.794Z,37.36
2019-05-19T07:17:47.347Z,36.79
2019-05-19T07:20:23.491Z,36.72
2019-05-19T07:22:54.921Z,37.07
2019-05-19T07:25:28.268Z,36.91
2019-05-19T07:28:00.142Z,36.71
2019-05-19T07:30:33.152Z,36.50
2019-05-19T07:33:04.844Z,36.18
2019-05-19T07:35:36.755Z,35.83
2019-05-19T07:38:08.646Z,35.95
2019-05-19T07:40:43.067Z,36.58
2019-05-19T07:43:14.753Z,36.70
2019-05-19T07:45:46.578Z,36.27
2019-05-19T07:48:18.199Z,36.08
2019-05-19T07:50:49.892Z,35.97
2019-05-19T07:53:21.539Z,36.11
2019-05-19T07:55:53.085Z,35.78
2019-05-19T07:58:24.662Z,35.59
2019-05-19T08:00:56.261Z,35.86
2019-05-19T08:03:27.816Z,35.79
2019-05-19T08:05:59.331Z,36.21
2019-05-19T08:08:32.423Z,35.85
2019-05-19T08:11:04.219Z,35.82
2019-05-19T08:13:35.879Z,35.67
2019-05-19T08:16:08.231Z,35.95
2019-05-19T08:18:42.040Z,35.84
2019-05-19T08:21:14.534Z,35.91
2019-05-19T08:23:59.874Z,35.73
2019-05-19T08:26:21.778Z,35.46
2019-05-19T08:28:53.574Z,35.79
2019-05-19T08:31:40.454Z,35.84
2019-05-19T08:34:23.364Z,36.06
2019-05-19T08:36:54.783Z,35.47
2019-05-19T08:39:26.165Z,35.30
2019-05-19T08:41:57.636Z,34.90
2019-05-19T08:44:29.090Z,34.79
2019-05-19T08:47:01.302Z,34.72
2019-05-19T08:49:32.878Z,35.16
2019-05-19T08:52:04.591Z,35.34
2019-05-19T08:54:37.479Z,35.86
2019-05-19T08:57:09.349Z,36.34
2019-05-19T08:59:41.094Z,35.49
2019-05-19T09:02:13.733Z,34.58
2019-05-19T09:04:45.633Z,33.83
2019-05-19T09:07:17.107Z,34.60
2019-05-19T09:09:49.256Z,34.21
2019-05-19T09:12:20.741Z,34.23
2019-05-19T09:14:52.623Z,33.63
2019-05-19T09:17:24.757Z,34.46
2019-05-19T09:19:58.011Z,34.31
2019-05-19T09:22:31.040Z,33.87
2019-05-19T09:25:07.007Z,32.88
2019-05-19T09:27:38.852Z,33.56
2019-05-19T09:30:11.377Z,33.73
2019-05-19T09:32:43.011Z,33.59
2019-05-19T09:35:14.677Z,33.01
2019-05-19T09:37:49.031Z,33.01
2019-05-19T09:40:20.528Z,33.31
2019-05-19T09:42:52.122Z,33.33
2019-05-19T09:45:23.602Z,33.71
2019-05-19T09:47:55.102Z,33.96
2019-05-19T09:50:26.488Z,34.33
2019-05-19T09:52:57.982Z,33.88
2019-05-19T09:55:29.405Z,33.57
2019-05-19T09:58:00.902Z,32.18
2019-05-19T10:00:32.517Z,32.17
2019-05-19T10:03:04.112Z,32.19
2019-05-19T10:05:35.811Z,31.86
2019-05-19T10:08:07.248Z,31.96
2019-05-19T10:11:04.969Z,34.51
2019-05-19T10:13:37.820Z,33.68
2019-05-19T10:16:09.642Z,33.21
2019-05-19T10:18:41.067Z,33.34
2019-05-19T10:21:12.581Z,33.47
2019-05-19T10:23:44.325Z,33.40
2019-05-19T10:26:15.865Z,33.01
2019-05-19T10:28:47.365Z,32.65
2019-05-19T10:31:18.836Z,32.47
2019-05-19T10:33:53.981Z,32.71
2019-05-19T10:36:25.512Z,32.86
2019-05-19T10:38:56.955Z,32.52
2019-05-19T10:41:28.508Z,32.58
2019-05-19T10:44:00.839Z,31.72
2019-05-19T10:46:33.638Z,32.53
2019-05-19T10:49:05.041Z,31.64
2019-05-19T10:51:36.390Z,31.52
2019-05-19T10:54:11.837Z,31.82
2019-05-19T10:56:44.201Z,32.12
2019-05-19T10:59:15.703Z,32.38
2019-05-19T11:01:47.220Z,32.48
2019-05-19T11:04:20.313Z,32.24
2019-05-19T11:06:51.885Z,31.93
